createdAt,value
2019-01-28T03:07:42.751Z,6.50
2019-01-28T03:10:32.503Z,3.63
2019-01-28T03:16:23.636Z,5.50
2019-01-28T03:19:12.556Z,10.17
2019-01-28T03:25:26.516Z,5.70
2019-01-28T03:28:15.470Z,6.37
2019-01-28T03:31:04.597Z,5.43
2019-01-28T03:33:53.563Z,4.97
2019-01-28T03:37:19.604Z,9.20
2019-01-28T03:47:15.771Z,7.40
2019-01-28T03:50:25.539Z,6.17
2019-01-28T03:53:14.590Z,8.30
2019-01-28T03:59:32.576Z,4.17
2019-01-28T04:02:21.457Z,9.50
2019-01-28T04:05:32.956Z,4.43
2019-01-28T04:11:26.627Z,6.20
2019-01-28T04:14:15.559Z,3.70
2019-01-28T04:16:58.224Z,5.67
2019-01-28T04:19:47.090Z,13.43
2019-01-28T04:22:36.089Z,7.60
2019-01-28T04:25:44.409Z,4.20
2019-01-28T04:28:33.347Z,3.60
2019-01-28T04:31:22.178Z,1.87
2019-01-28T04:34:11.026Z,7.30
2019-01-28T04:36:59.867Z,9.43
2019-01-28T04:39:48.895Z,6.70
2019-01-28T04:42:57.234Z,3.70
2019-01-28T04:45:46.333Z,7.50
2019-01-28T04:48:35.231Z,3.73
2019-01-28T04:51:24.208Z,5.80
2019-01-28T04:54:13.097Z,6.80
2019-01-28T04:57:01.946Z,9.77
2019-01-28T04:59:50.883Z,5.00
2019-01-28T05:02:39.790Z,4.63
2019-01-28T05:05:28.717Z,5.23
2019-01-28T05:08:17.683Z,2.60
2019-01-28T05:11:06.602Z,2.30
2019-01-28T05:13:55.445Z,2.90
2019-01-28T05:16:39.399Z,4.37
2019-01-28T05:19:28.227Z,5.60
2019-01-28T05:22:17.184Z,7.17
2019-01-28T05:25:26.987Z,4.53
2019-01-28T05:28:15.888Z,7.50
2019-01-28T05:31:04.808Z,5.23
2019-01-28T05:33:55.353Z,6.20
2019-01-28T05:36:44.267Z,2.93
2019-01-28T05:39:52.530Z,3.83
2019-01-28T05:42:41.458Z,4.27
2019-01-28T05:45:30.352Z,5.80
2019-01-28T05:48:38.639Z,6.30
2019-01-28T05:51:46.994Z,6.17
2019-01-28T05:54:37.526Z,4.10
2019-01-28T05:57:26.459Z,5.50
2019-01-28T06:00:36.253Z,5.30
2019-01-28T06:03:25.132Z,4.47
2019-01-28T06:06:15.613Z,5.50
2019-01-28T06:09:23.891Z,3.90
2019-01-28T06:12:14.423Z,6.33
2019-01-28T06:15:24.162Z,4.63
2019-01-28T06:18:26.071Z,7.80
2019-01-28T06:21:14.918Z,8.43
2019-01-28T06:24:03.845Z,4.77
2019-01-28T06:27:12.158Z,5.30
2019-01-28T06:30:00.995Z,5.47
2019-01-28T06:32:49.922Z,6.53
2019-01-28T06:35:38.854Z,6.60
2019-01-28T06:38:47.254Z,4.30
2019-01-28T06:41:36.098Z,4.70
2019-01-28T06:44:44.386Z,4.40
2019-01-28T06:47:33.287Z,5.60
2019-01-28T06:50:22.598Z,5.93
2019-01-28T06:53:11.459Z,8.00
2019-01-28T06:56:00.360Z,7.17
2019-01-28T06:58:49.289Z,4.93
2019-01-28T07:01:38.195Z,2.87
2019-01-28T07:04:27.059Z,9.80
2019-01-28T07:07:15.886Z,6.57
2019-01-28T07:10:25.539Z,6.63
2019-01-28T07:13:14.427Z,8.70
2019-01-28T07:16:16.287Z,9.30
2019-01-28T07:19:05.410Z,14.37
2019-01-28T07:21:54.347Z,20.40
2019-01-28T07:24:44.816Z,10.80
2019-01-28T07:27:35.430Z,12.17
2019-01-28T07:30:45.255Z,16.97
2019-01-28T07:33:35.787Z,8.23
2019-01-28T07:36:25.075Z,17.07
2019-01-28T07:39:13.922Z,13.17
2019-01-28T07:41:45.334Z,14.47
2019-01-28T07:44:53.599Z,9.53
2019-01-28T07:47:42.543Z,19.43
2019-01-28T07:50:31.613Z,13.70
2019-01-28T07:53:39.946Z,18.73
2019-01-28T07:56:28.972Z,18.87
2019-01-28T07:59:17.874Z,20.30
2019-01-28T08:02:07.023Z,15.60
2019-01-28T08:04:55.934Z,15.80
2019-01-28T08:07:45.026Z,18.33
2019-01-28T08:10:34.005Z,15.17
2019-01-28T08:13:23.114Z,21.00
2019-01-28T08:16:12.051Z,14.70
2019-01-28T08:19:02.610Z,19.13
2019-01-28T08:22:05.761Z,12.10
2019-01-28T08:25:01.475Z,14.10
2019-01-28T08:27:50.607Z,16.70
2019-01-28T08:30:39.618Z,13.70
2019-01-28T08:33:28.556Z,10.60
2019-01-28T08:36:19.185Z,18.00
2019-01-28T08:39:08.386Z,13.37
2019-01-28T08:42:16.822Z,20.80
2019-01-28T08:45:26.485Z,19.30
2019-01-28T08:48:34.852Z,16.50
2019-01-28T08:51:23.756Z,20.47
2019-01-28T08:54:32.194Z,30.10
2019-01-28T08:57:33.199Z,20.13
2019-01-28T09:00:51.806Z,11.33
2019-01-28T09:03:40.686Z,17.47
2019-01-28T09:06:29.514Z,9.00
2019-01-28T09:09:37.806Z,16.40
2019-01-28T09:12:26.640Z,15.40
2019-01-28T09:15:34.982Z,19.23
2019-01-28T09:18:17.317Z,24.13
2019-01-28T09:21:06.284Z,17.43
2019-01-28T09:23:55.299Z,19.30
2019-01-28T09:26:44.459Z,17.47
2019-01-28T09:29:33.320Z,20.37
2019-01-28T09:32:41.747Z,16.47
2019-01-28T09:35:30.882Z,18.57
2019-01-28T09:38:19.891Z,17.50
2019-01-28T09:41:08.998Z,27.63
2019-01-28T09:43:57.860Z,24.40
2019-01-28T09:47:06.516Z,27.57
2019-01-28T09:49:55.395Z,21.30
2019-01-28T09:52:44.522Z,23.57
2019-01-28T09:55:35.102Z,16.00
2019-01-28T09:58:24.203Z,13.70
2019-01-28T10:01:13.251Z,15.77
2019-01-28T10:04:02.171Z,18.57
2019-01-28T10:06:51.062Z,11.47
2019-01-28T10:09:40.468Z,15.27
2019-01-28T15:49:43.783Z,7.70
2019-01-28T16:44:34.532Z,8.15
2019-01-28T16:50:43.954Z,7.60
2019-01-28T16:56:30.160Z,9.00
2019-01-28T17:39:43.103Z,10.05
2019-01-28T17:42:32.015Z,10.67
2019-01-28T18:02:48.103Z,12.90
2019-01-28T18:36:11.625Z,14.67
2019-01-28T18:38:57.665Z,21.43
2019-01-28T19:21:46.099Z,21.90
2019-01-28T19:24:35.295Z,14.75
2019-01-28T19:27:24.503Z,14.70
2019-01-28T19:50:25.536Z,10.77
2019-01-28T19:53:16.522Z,15.80
2019-01-28T20:08:37.327Z,13.80
2019-01-28T20:23:42.333Z,26.60
2019-01-28T20:26:49.461Z,19.10
2019-01-28T20:29:40.115Z,13.90
2019-01-28T20:32:29.294Z,13.30
2019-01-28T20:58:51.850Z,7.75
2019-01-28T22:24:21.403Z,12.43
2019-01-28T22:27:10.294Z,7.00
2019-01-28T22:29:59.226Z,9.53
2019-01-28T22:32:48.126Z,16.87
2019-01-28T22:35:37.063Z,10.73
2019-01-28T22:38:19.759Z,13.17
2019-01-28T22:41:08.613Z,18.30
2019-01-28T22:43:57.550Z,17.90
2019-01-28T22:46:46.495Z,11.37
2019-01-28T22:49:35.403Z,12.77
2019-01-28T22:52:24.331Z,17.73
2019-01-28T22:55:32.677Z,10.80
2019-01-28T22:58:21.503Z,13.67
2019-01-28T23:01:53.962Z,13.60
2019-01-28T23:04:42.943Z,11.93
2019-01-28T23:07:31.832Z,11.37
2019-01-28T23:10:20.651Z,14.97
2019-01-28T23:13:09.814Z,15.63
2019-01-28T23:15:58.844Z,13.07
2019-01-28T23:19:00.755Z,23.40
2019-01-28T23:21:49.611Z,20.20
2019-01-28T23:24:38.447Z,16.57
2019-01-28T23:27:27.303Z,18.60
2019-01-28T23:30:16.267Z,17.47
2019-01-28T23:33:05.378Z,24.73
2019-01-28T23:35:54.368Z,22.93
2019-01-28T23:42:11.782Z,18.55
2019-01-28T23:53:25.231Z,13.10
2019-01-28T23:59:02.200Z,16.17
